EA3GYL La Torregassa ES current weather conditions

sailwx.info

Wind from 095 at 1 knots gusting 4

Air temperature 15.6° C
Dewpoint 8.8° C

Last reported at 2016-Jun-01 05:57 UTC.
Time now 2016-Jun-01 07:26 UTC

Location: N 41°17' E 001°31'.
View on Google Maps.

See reports from other nearby stations

  
Tides and Currents Weather Stations Pressure Air Temp Water Temp Dewpoint Dewpoint Depression Visibility Wind Speed Wind Dir Waves Ship Positions
date/time (UTC)wind fromknots sea level pressurealtimeterstation pressurevisibilityair tempwater tempwave heightnotes
2016-Jun-01 05:57 095 1 gusting 4 15.6
2016-Jun-01 05:40 297 15.6
2016-Jun-01 05:24 110 15.0
2016-Jun-01 05:08 102 15.0
2016-May-31 22:51 339 16.7
2016-May-31 22:35 353 16.7
2016-May-31 22:18 002 16.7
2016-May-31 22:02 015 16.7
2016-May-31 21:45 356 16.7
2016-May-31 20:40 010 0 gusting 2 17.2
2016-May-31 20:30 17.2
2016-May-31 13:49 102 6 gusting 12 22.2
2016-May-31 13:32 162 6 gusting 13 22.2
2016-May-31 13:16 138 8 gusting 14 22.2
2016-May-31 12:59 103 5 gusting 13 22.2
2016-May-31 12:39 140 5 gusting 12 22.2
2016-May-31 09:31 292 3 gusting 10 20.6
2016-May-30 21:10 204 16.1
2016-May-30 20:53 204 16.7
2016-May-30 20:36 183 17.2
2016-May-30 20:20 155 17.2
2016-May-30 20:04 155 17.8
2016-May-30 19:47 221 18.3
2016-May-30 19:31 221 18.9
2016-May-30 19:15 221 19.4
2016-May-30 18:58 221 20.0
2016-May-30 18:42 205 20.6
2016-May-30 18:26 202 0 gusting 4 20.6
2016-May-30 18:10 223 2 gusting 5 21.1
2016-May-30 17:53 190 3 gusting 7 21.1
2016-May-30 17:37 178 2 gusting 6 21.7
2016-May-30 17:21 248 2 gusting 6 21.1
2016-May-30 17:05 091 2 gusting 6 21.7
2016-May-30 16:48 145 3 gusting 9 21.1
2016-May-30 16:32 089 5 gusting 8 21.7
2016-May-30 16:15 145 3 gusting 9 21.1
2016-May-30 15:58 131 2 gusting 7 20.6
2016-May-30 15:42 105 4 gusting 7 20.6
2016-May-30 15:25 148 4 gusting 10 20.0
2016-May-30 15:09 114 3 gusting 7 20.0
2016-May-30 14:52 201 4 gusting 11 20.6
2016-May-30 14:36 109 5 gusting 12 21.1
2016-May-30 14:19 115 6 gusting 12 21.1
2016-May-30 14:03 099 6 gusting 11 21.7
2016-May-30 13:46 114 5 gusting 11 22.8
2016-May-30 13:29 084 6 gusting 13 22.8
2016-May-30 13:13 178 6 gusting 13 23.9
2016-May-30 12:56 143 3 gusting 8 23.3
2016-May-30 12:39 212 6 gusting 12 23.3
2016-May-30 12:23 149 6 gusting 12 23.3